sensor_id;sensor_type;location;lat;lon;timestamp;P1;durP1;ratioP1;P2;durP2;ratioP2
25637;SDS011;13496;51.040;13.680;2023-07-31T00:00:29;1.02;;;1.02;;
25637;SDS011;13496;51.040;13.680;2023-07-31T00:05:31;1.00;;;1.00;;
25637;SDS011;13496;51.040;13.680;2023-07-31T00:10:33;2.55;;;1.30;;
25637;SDS011;13496;51.040;13.680;2023-07-31T00:15:35;1.88;;;1.23;;
25637;SDS011;13496;51.040;13.680;2023-07-31T00:20:36;1.25;;;1.15;;
25637;SDS011;13496;51.040;13.680;2023-07-31T00:25:39;1.20;;;1.10;;
25637;SDS011;13496;51.040;13.680;2023-07-31T00:30:40;1.33;;;1.23;;
25637;SDS011;13496;51.040;13.680;2023-07-31T00:35:42;1.30;;;1.20;;
25637;SDS011;13496;51.040;13.680;2023-07-31T00:40:44;1.40;;;1.30;;
25637;SDS011;13496;51.040;13.680;2023-07-31T00:45:45;2.15;;;1.30;;
25637;SDS011;13496;51.040;13.680;2023-07-31T00:50:47;1.30;;;1.20;;
25637;SDS011;13496;51.040;13.680;2023-07-31T00:55:50;1.88;;;1.02;;
25637;SDS011;13496;51.040;13.680;2023-07-31T01:00:52;1.73;;;1.45;;
25637;SDS011;13496;51.040;13.680;2023-07-31T01:06:04;1.60;;;1.20;;
25637;SDS011;13496;51.040;13.680;2023-07-31T01:11:19;1.40;;;1.30;;
25637;SDS011;13496;51.040;13.680;2023-07-31T01:16:27;1.35;;;1.25;;
25637;SDS011;13496;51.040;13.680;2023-07-31T01:21:30;1.33;;;1.10;;
25637;SDS011;13496;51.040;13.680;2023-07-31T01:26:38;1.30;;;1.20;;
25637;SDS011;13496;51.040;13.680;2023-07-31T01:31:40;1.92;;;1.38;;
25637;SDS011;13496;51.040;13.680;2023-07-31T01:36:45;1.42;;;1.20;;
25637;SDS011;13496;51.040;13.680;2023-07-31T01:41:47;1.15;;;1.05;;
25637;SDS011;13496;51.040;13.680;2023-07-31T01:46:49;1.35;;;1.20;;
25637;SDS011;13496;51.040;13.680;2023-07-31T01:51:50;1.58;;;1.27;;
25637;SDS011;13496;51.040;13.680;2023-07-31T01:56:52;1.23;;;1.13;;
25637;SDS011;13496;51.040;13.680;2023-07-31T02:01:54;1.25;;;1.15;;
25637;SDS011;13496;51.040;13.680;2023-07-31T02:06:56;1.05;;;1.00;;
25637;SDS011;13496;51.040;13.680;2023-07-31T02:11:57;1.77;;;1.20;;
25637;SDS011;13496;51.040;13.680;2023-07-31T02:17:00;1.30;;;1.20;;
25637;SDS011;13496;51.040;13.680;2023-07-31T02:22:01;1.30;;;1.20;;
25637;SDS011;13496;51.040;13.680;2023-07-31T02:27:03;1.15;;;1.00;;
25637;SDS011;13496;51.040;13.680;2023-07-31T02:32:05;1.30;;;1.20;;
25637;SDS011;13496;51.040;13.680;2023-07-31T02:37:07;1.45;;;1.10;;
25637;SDS011;13496;51.040;13.680;2023-07-31T02:42:09;1.58;;;1.17;;
25637;SDS011;13496;51.040;13.680;2023-07-31T02:47:10;1.10;;;1.00;;
25637;SDS011;13496;51.040;13.680;2023-07-31T02:52:12;1.52;;;1.30;;
25637;SDS011;13496;51.040;13.680;2023-07-31T02:57:14;1.25;;;1.05;;
25637;SDS011;13496;51.040;13.680;2023-07-31T03:02:17;1.20;;;1.10;;
25637;SDS011;13496;51.040;13.680;2023-07-31T03:07:19;1.00;;;0.90;;
25637;SDS011;13496;51.040;13.680;2023-07-31T03:12:20;1.00;;;1.00;;
25637;SDS011;13496;51.040;13.680;2023-07-31T03:17:23;1.45;;;1.20;;
25637;SDS011;13496;51.040;13.680;2023-07-31T03:22:25;1.17;;;1.10;;
25637;SDS011;13496;51.040;13.680;2023-07-31T03:27:27;1.20;;;1.10;;
25637;SDS011;13496;51.040;13.680;2023-07-31T03:32:28;1.20;;;1.10;;
25637;SDS011;13496;51.040;13.680;2023-07-31T03:37:30;1.38;;;1.00;;
25637;SDS011;13496;51.040;13.680;2023-07-31T03:42:32;1.30;;;1.10;;
25637;SDS011;13496;51.040;13.680;2023-07-31T03:47:33;1.25;;;1.10;;
25637;SDS011;13496;51.040;13.680;2023-07-31T03:52:35;1.15;;;0.90;;
25637;SDS011;13496;51.040;13.680;2023-07-31T03:57:37;3.80;;;1.35;;
25637;SDS011;13496;51.040;13.680;2023-07-31T04:02:39;1.20;;;1.10;;
25637;SDS011;13496;51.040;13.680;2023-07-31T04:07:40;1.52;;;1.35;;
25637;SDS011;13496;51.040;13.680;2023-07-31T04:12:42;1.60;;;1.10;;
25637;SDS011;13496;51.040;13.680;2023-07-31T04:17:44;1.50;;;1.05;;
25637;SDS011;13496;51.040;13.680;2023-07-31T04:22:45;1.17;;;1.10;;
25637;SDS011;13496;51.040;13.680;2023-07-31T04:27:47;1.30;;;1.20;;
25637;SDS011;13496;51.040;13.680;2023-07-31T04:32:49;1.45;;;1.20;;
25637;SDS011;13496;51.040;13.680;2023-07-31T04:37:50;1.35;;;1.25;;
25637;SDS011;13496;51.040;13.680;2023-07-31T04:42:52;1.40;;;1.30;;
25637;SDS011;13496;51.040;13.680;2023-07-31T04:47:54;1.20;;;1.10;;
25637;SDS011;13496;51.040;13.680;2023-07-31T04:52:56;1.23;;;0.95;;
25637;SDS011;13496;51.040;13.680;2023-07-31T04:58:01;1.85;;;1.35;;
25637;SDS011;13496;51.040;13.680;2023-07-31T05:03:03;1.45;;;1.10;;
25637;SDS011;13496;51.040;13.680;2023-07-31T05:08:04;1.40;;;1.30;;
25637;SDS011;13496;51.040;13.680;2023-07-31T05:13:06;1.40;;;1.30;;
25637;SDS011;13496;51.040;13.680;2023-07-31T05:18:08;1.05;;;1.00;;
25637;SDS011;13496;51.040;13.680;2023-07-31T05:23:09;1.33;;;1.10;;
25637;SDS011;13496;51.040;13.680;2023-07-31T05:28:12;1.40;;;1.30;;
25637;SDS011;13496;51.040;13.680;2023-07-31T05:33:14;1.42;;;1.13;;
25637;SDS011;13496;51.040;13.680;2023-07-31T05:38:15;1.48;;;1.30;;
25637;SDS011;13496;51.040;13.680;2023-07-31T05:43:17;1.70;;;1.10;;
25637;SDS011;13496;51.040;13.680;2023-07-31T05:48:19;1.40;;;1.13;;
25637;SDS011;13496;51.040;13.680;2023-07-31T05:53:20;1.63;;;1.02;;
25637;SDS011;13496;51.040;13.680;2023-07-31T05:58:22;1.92;;;1.30;;
25637;SDS011;13496;51.040;13.680;2023-07-31T06:03:24;1.35;;;1.25;;
25637;SDS011;13496;51.040;13.680;2023-07-31T06:08:25;1.90;;;1.30;;
25637;SDS011;13496;51.040;13.680;2023-07-31T06:13:27;1.33;;;1.00;;
25637;SDS011;13496;51.040;13.680;2023-07-31T06:18:29;1.55;;;1.30;;
25637;SDS011;13496;51.040;13.680;2023-07-31T06:23:31;2.22;;;1.15;;
25637;SDS011;13496;51.040;13.680;2023-07-31T06:28:32;1.23;;;1.00;;
25637;SDS011;13496;51.040;13.680;2023-07-31T06:33:34;1.20;;;1.10;;
25637;SDS011;13496;51.040;13.680;2023-07-31T06:38:36;1.20;;;1.10;;
25637;SDS011;13496;51.040;13.680;2023-07-31T06:43:39;1.25;;;1.15;;
25637;SDS011;13496;51.040;13.680;2023-07-31T06:48:41;1.05;;;1.02;;
25637;SDS011;13496;51.040;13.680;2023-07-31T06:53:42;1.42;;;1.10;;
25637;SDS011;13496;51.040;13.680;2023-07-31T06:58:46;1.42;;;1.13;;
25637;SDS011;13496;51.040;13.680;2023-07-31T07:03:48;2.05;;;1.20;;
25637;SDS011;13496;51.040;13.680;2023-07-31T07:08:52;1.70;;;1.10;;
25637;SDS011;13496;51.040;13.680;2023-07-31T07:13:53;2.47;;;1.45;;
25637;SDS011;13496;51.040;13.680;2023-07-31T07:18:55;1.60;;;1.17;;
25637;SDS011;13496;51.040;13.680;2023-07-31T07:23:57;2.13;;;1.27;;
25637;SDS011;13496;51.040;13.680;2023-07-31T07:28:58;2.13;;;0.98;;
25637;SDS011;13496;51.040;13.680;2023-07-31T07:34:02;1.25;;;1.15;;
25637;SDS011;13496;51.040;13.680;2023-07-31T07:39:04;1.35;;;1.20;;
25637;SDS011;13496;51.040;13.680;2023-07-31T07:44:07;1.23;;;1.05;;
25637;SDS011;13496;51.040;13.680;2023-07-31T07:49:09;1.48;;;1.20;;
25637;SDS011;13496;51.040;13.680;2023-07-31T07:54:11;1.25;;;1.15;;
25637;SDS011;13496;51.040;13.680;2023-07-31T07:59:12;1.38;;;1.27;;
25637;SDS011;13496;51.040;13.680;2023-07-31T08:04:14;1.48;;;1.20;;
25637;SDS011;13496;51.040;13.680;2023-07-31T08:09:16;1.42;;;1.30;;
25637;SDS011;13496;51.040;13.680;2023-07-31T08:14:17;1.30;;;1.20;;
25637;SDS011;13496;51.040;13.680;2023-07-31T08:19:19;1.30;;;1.20;;
25637;SDS011;13496;51.040;13.680;2023-07-31T08:24:21;1.50;;;1.40;;
25637;SDS011;13496;51.040;13.680;2023-07-31T08:29:22;1.58;;;1.33;;
25637;SDS011;13496;51.040;13.680;2023-07-31T08:34:25;1.38;;;1.27;;
25637;SDS011;13496;51.040;13.680;2023-07-31T08:39:26;1.85;;;1.33;;
25637;SDS011;13496;51.040;13.680;2023-07-31T08:44:29;1.30;;;1.20;;
25637;SDS011;13496;51.040;13.680;2023-07-31T08:49:32;2.20;;;1.50;;
25637;SDS011;13496;51.040;13.680;2023-07-31T08:54:36;1.55;;;1.30;;
25637;SDS011;13496;51.040;13.680;2023-07-31T08:59:37;1.35;;;1.15;;
25637;SDS011;13496;51.040;13.680;2023-07-31T09:04:40;1.00;;;0.95;;
25637;SDS011;13496;51.040;13.680;2023-07-31T09:09:42;1.40;;;1.30;;
25637;SDS011;13496;51.040;13.680;2023-07-31T09:14:44;1.35;;;1.25;;
25637;SDS011;13496;51.040;13.680;2023-07-31T09:19:47;1.25;;;1.15;;
25637;SDS011;13496;51.040;13.680;2023-07-31T09:24:48;1.30;;;1.20;;
25637;SDS011;13496;51.040;13.680;2023-07-31T09:29:58;2.38;;;1.30;;
25637;SDS011;13496;51.040;13.680;2023-07-31T09:35:00;1.60;;;1.50;;
25637;SDS011;13496;51.040;13.680;2023-07-31T09:40:02;1.42;;;1.33;;
25637;SDS011;13496;51.040;13.680;2023-07-31T09:45:07;1.55;;;1.40;;
25637;SDS011;13496;51.040;13.680;2023-07-31T09:50:10;1.80;;;1.38;;
25637;SDS011;13496;51.040;13.680;2023-07-31T09:55:12;1.48;;;1.13;;
25637;SDS011;13496;51.040;13.680;2023-07-31T10:00:17;1.40;;;1.30;;
25637;SDS011;13496;51.040;13.680;2023-07-31T10:05:20;2.30;;;1.50;;
25637;SDS011;13496;51.040;13.680;2023-07-31T10:10:22;2.10;;;1.30;;
25637;SDS011;13496;51.040;13.680;2023-07-31T10:15:24;2.55;;;1.70;;
25637;SDS011;13496;51.040;13.680;2023-07-31T10:20:27;1.27;;;1.15;;
25637;SDS011;13496;51.040;13.680;2023-07-31T10:25:30;1.17;;;1.10;;
25637;SDS011;13496;51.040;13.680;2023-07-31T10:30:33;1.25;;;1.15;;
25637;SDS011;13496;51.040;13.680;2023-07-31T10:35:39;1.30;;;1.10;;
25637;SDS011;13496;51.040;13.680;2023-07-31T10:40:41;1.40;;;1.30;;
25637;SDS011;13496;51.040;13.680;2023-07-31T10:45:43;1.40;;;1.30;;
25637;SDS011;13496;51.040;13.680;2023-07-31T10:50:48;1.70;;;1.40;;
25637;SDS011;13496;51.040;13.680;2023-07-31T10:56:00;1.50;;;1.40;;
25637;SDS011;13496;51.040;13.680;2023-07-31T11:01:03;1.50;;;1.35;;
25637;SDS011;13496;51.040;13.680;2023-07-31T11:06:06;1.50;;;1.40;;
25637;SDS011;13496;51.040;13.680;2023-07-31T11:11:09;1.35;;;1.23;;
25637;SDS011;13496;51.040;13.680;2023-07-31T11:16:13;1.10;;;1.00;;
25637;SDS011;13496;51.040;13.680;2023-07-31T11:21:15;1.88;;;1.40;;
25637;SDS011;13496;51.040;13.680;2023-07-31T11:26:18;1.48;;;1.38;;
25637;SDS011;13496;51.040;13.680;2023-07-31T11:31:20;1.50;;;1.40;;
25637;SDS011;13496;51.040;13.680;2023-07-31T11:36:23;1.40;;;1.30;;
25637;SDS011;13496;51.040;13.680;2023-07-31T11:41:25;2.17;;;1.33;;
25637;SDS011;13496;51.040;13.680;2023-07-31T11:46:30;1.38;;;1.25;;
25637;SDS011;13496;51.040;13.680;2023-07-31T11:51:32;1.38;;;1.27;;
25637;SDS011;13496;51.040;13.680;2023-07-31T11:56:34;1.65;;;1.55;;
25637;SDS011;13496;51.040;13.680;2023-07-31T12:01:36;1.40;;;1.30;;
25637;SDS011;13496;51.040;13.680;2023-07-31T12:06:38;1.33;;;1.23;;
25637;SDS011;13496;51.040;13.680;2023-07-31T12:11:46;1.40;;;1.23;;
25637;SDS011;13496;51.040;13.680;2023-07-31T12:16:52;1.38;;;1.27;;
25637;SDS011;13496;51.040;13.680;2023-07-31T12:21:56;1.48;;;1.30;;
25637;SDS011;13496;51.040;13.680;2023-07-31T12:26:58;1.60;;;1.50;;
25637;SDS011;13496;51.040;13.680;2023-07-31T12:31:59;1.40;;;1.30;;
25637;SDS011;13496;51.040;13.680;2023-07-31T12:37:01;1.63;;;1.40;;
25637;SDS011;13496;51.040;13.680;2023-07-31T12:42:03;1.20;;;1.10;;
25637;SDS011;13496;51.040;13.680;2023-07-31T12:47:05;1.33;;;1.23;;
25637;SDS011;13496;51.040;13.680;2023-07-31T12:52:07;1.75;;;1.60;;
25637;SDS011;13496;51.040;13.680;2023-07-31T12:57:08;1.40;;;1.30;;
25637;SDS011;13496;51.040;13.680;2023-07-31T13:02:10;1.45;;;1.35;;
25637;SDS011;13496;51.040;13.680;2023-07-31T13:07:12;1.25;;;1.15;;
25637;SDS011;13496;51.040;13.680;2023-07-31T13:12:13;1.40;;;1.30;;
25637;SDS011;13496;51.040;13.680;2023-07-31T13:17:15;1.20;;;1.10;;
25637;SDS011;13496;51.040;13.680;2023-07-31T13:22:17;1.30;;;1.20;;
25637;SDS011;13496;51.040;13.680;2023-07-31T13:27:19;1.42;;;1.30;;
25637;SDS011;13496;51.040;13.680;2023-07-31T13:32:21;1.52;;;1.40;;
25637;SDS011;13496;51.040;13.680;2023-07-31T13:37:24;1.30;;;1.10;;
25637;SDS011;13496;51.040;13.680;2023-07-31T13:42:26;1.50;;;1.38;;
25637;SDS011;13496;51.040;13.680;2023-07-31T13:47:29;1.30;;;1.20;;
25637;SDS011;13496;51.040;13.680;2023-07-31T13:52:32;1.73;;;1.48;;
25637;SDS011;13496;51.040;13.680;2023-07-31T13:57:34;1.50;;;1.40;;
25637;SDS011;13496;51.040;13.680;2023-07-31T14:02:36;1.65;;;1.27;;
25637;SDS011;13496;51.040;13.680;2023-07-31T14:07:37;1.58;;;1.40;;
25637;SDS011;13496;51.040;13.680;2023-07-31T14:12:39;1.55;;;1.40;;
25637;SDS011;13496;51.040;13.680;2023-07-31T14:17:41;1.77;;;1.20;;
25637;SDS011;13496;51.040;13.680;2023-07-31T14:22:42;1.40;;;1.30;;
25637;SDS011;13496;51.040;13.680;2023-07-31T14:27:44;1.30;;;1.20;;
25637;SDS011;13496;51.040;13.680;2023-07-31T14:32:46;1.50;;;1.40;;
25637;SDS011;13496;51.040;13.680;2023-07-31T14:37:48;1.30;;;1.20;;
25637;SDS011;13496;51.040;13.680;2023-07-31T14:42:50;1.52;;;1.42;;
25637;SDS011;13496;51.040;13.680;2023-07-31T14:47:51;1.60;;;1.50;;
25637;SDS011;13496;51.040;13.680;2023-07-31T14:52:53;1.45;;;1.35;;
25637;SDS011;13496;51.040;13.680;2023-07-31T14:57:55;1.50;;;1.40;;
25637;SDS011;13496;51.040;13.680;2023-07-31T15:02:57;1.52;;;1.40;;
25637;SDS011;13496;51.040;13.680;2023-07-31T15:07:58;2.00;;;1.50;;
25637;SDS011;13496;51.040;13.680;2023-07-31T15:13:00;1.65;;;1.55;;
25637;SDS011;13496;51.040;13.680;2023-07-31T15:18:02;1.75;;;1.60;;
25637;SDS011;13496;51.040;13.680;2023-07-31T15:23:04;1.75;;;1.63;;
25637;SDS011;13496;51.040;13.680;2023-07-31T15:28:06;2.70;;;1.60;;
25637;SDS011;13496;51.040;13.680;2023-07-31T15:33:08;2.97;;;1.75;;
25637;SDS011;13496;51.040;13.680;2023-07-31T15:38:10;2.38;;;1.50;;
25637;SDS011;13496;51.040;13.680;2023-07-31T15:43:11;1.65;;;1.35;;
25637;SDS011;13496;51.040;13.680;2023-07-31T15:48:13;1.98;;;1.70;;
25637;SDS011;13496;51.040;13.680;2023-07-31T15:53:15;1.60;;;1.50;;
25637;SDS011;13496;51.040;13.680;2023-07-31T15:58:17;2.05;;;1.75;;
25637;SDS011;13496;51.040;13.680;2023-07-31T16:03:18;1.58;;;1.23;;
25637;SDS011;13496;51.040;13.680;2023-07-31T16:08:22;1.95;;;1.63;;
25637;SDS011;13496;51.040;13.680;2023-07-31T16:13:24;2.50;;;1.70;;
25637;SDS011;13496;51.040;13.680;2023-07-31T16:18:26;1.75;;;1.65;;
25637;SDS011;13496;51.040;13.680;2023-07-31T16:23:27;2.25;;;1.80;;
25637;SDS011;13496;51.040;13.680;2023-07-31T16:28:29;1.83;;;1.73;;
25637;SDS011;13496;51.040;13.680;2023-07-31T16:33:31;2.22;;;1.85;;
25637;SDS011;13496;51.040;13.680;2023-07-31T16:38:34;1.88;;;1.60;;
25637;SDS011;13496;51.040;13.680;2023-07-31T16:43:36;1.90;;;1.50;;
25637;SDS011;13496;51.040;13.680;2023-07-31T16:48:37;2.05;;;1.85;;
25637;SDS011;13496;51.040;13.680;2023-07-31T16:53:39;2.15;;;1.55;;
25637;SDS011;13496;51.040;13.680;2023-07-31T16:58:42;3.78;;;1.77;;
25637;SDS011;13496;51.040;13.680;2023-07-31T17:03:44;2.13;;;1.73;;
25637;SDS011;13496;51.040;13.680;2023-07-31T17:08:46;1.55;;;1.45;;
25637;SDS011;13496;51.040;13.680;2023-07-31T17:13:47;1.42;;;1.33;;
25637;SDS011;13496;51.040;13.680;2023-07-31T17:18:49;2.00;;;1.80;;
25637;SDS011;13496;51.040;13.680;2023-07-31T17:23:51;1.60;;;1.50;;
25637;SDS011;13496;51.040;13.680;2023-07-31T17:28:54;1.50;;;1.40;;
25637;SDS011;13496;51.040;13.680;2023-07-31T17:33:55;1.45;;;1.35;;
25637;SDS011;13496;51.040;13.680;2023-07-31T17:38:57;1.75;;;1.65;;
25637;SDS011;13496;51.040;13.680;2023-07-31T17:43:59;1.63;;;1.52;;
25637;SDS011;13496;51.040;13.680;2023-07-31T17:49:00;2.65;;;1.48;;
25637;SDS011;13496;51.040;13.680;2023-07-31T17:54:03;1.83;;;1.58;;
25637;SDS011;13496;51.040;13.680;2023-07-31T17:59:06;1.92;;;1.50;;
25637;SDS011;13496;51.040;13.680;2023-07-31T18:04:08;1.73;;;1.63;;
25637;SDS011;13496;51.040;13.680;2023-07-31T18:09:12;1.75;;;1.58;;
25637;SDS011;13496;51.040;13.680;2023-07-31T18:14:13;1.50;;;1.40;;
25637;SDS011;13496;51.040;13.680;2023-07-31T18:19:15;1.88;;;1.67;;
25637;SDS011;13496;51.040;13.680;2023-07-31T18:24:17;1.80;;;1.70;;
25637;SDS011;13496;51.040;13.680;2023-07-31T18:29:18;2.20;;;1.90;;
25637;SDS011;13496;51.040;13.680;2023-07-31T18:34:20;5.68;;;2.83;;
25637;SDS011;13496;51.040;13.680;2023-07-31T18:39:22;5.55;;;3.05;;
25637;SDS011;13496;51.040;13.680;2023-07-31T18:44:24;5.28;;;2.58;;
25637;SDS011;13496;51.040;13.680;2023-07-31T18:49:25;6.95;;;3.65;;
25637;SDS011;13496;51.040;13.680;2023-07-31T18:54:27;7.30;;;3.13;;
25637;SDS011;13496;51.040;13.680;2023-07-31T18:59:29;10.95;;;4.75;;
25637;SDS011;13496;51.040;13.680;2023-07-31T19:04:30;7.88;;;4.10;;
25637;SDS011;13496;51.040;13.680;2023-07-31T19:09:33;11.57;;;4.50;;
25637;SDS011;13496;51.040;13.680;2023-07-31T19:14:36;10.07;;;4.28;;
25637;SDS011;13496;51.040;13.680;2023-07-31T19:19:38;13.77;;;4.75;;
25637;SDS011;13496;51.040;13.680;2023-07-31T19:24:40;8.45;;;4.47;;
25637;SDS011;13496;51.040;13.680;2023-07-31T19:29:41;8.90;;;4.55;;
25637;SDS011;13496;51.040;13.680;2023-07-31T19:34:43;9.95;;;5.00;;
25637;SDS011;13496;51.040;13.680;2023-07-31T19:39:45;11.23;;;5.15;;
25637;SDS011;13496;51.040;13.680;2023-07-31T19:44:48;12.27;;;5.50;;
25637;SDS011;13496;51.040;13.680;2023-07-31T19:49:50;13.32;;;5.40;;
25637;SDS011;13496;51.040;13.680;2023-07-31T19:54:51;11.18;;;5.63;;
25637;SDS011;13496;51.040;13.680;2023-07-31T19:59:53;13.65;;;5.82;;
25637;SDS011;13496;51.040;13.680;2023-07-31T20:04:55;10.88;;;5.07;;
25637;SDS011;13496;51.040;13.680;2023-07-31T20:09:56;13.73;;;5.68;;
25637;SDS011;13496;51.040;13.680;2023-07-31T20:15:00;16.88;;;6.53;;
25637;SDS011;13496;51.040;13.680;2023-07-31T20:20:04;12.18;;;5.60;;
25637;SDS011;13496;51.040;13.680;2023-07-31T20:25:07;16.48;;;5.93;;
25637;SDS011;13496;51.040;13.680;2023-07-31T20:30:09;11.60;;;5.75;;
25637;SDS011;13496;51.040;13.680;2023-07-31T20:35:10;13.70;;;6.22;;
25637;SDS011;13496;51.040;13.680;2023-07-31T20:40:12;11.95;;;5.80;;
25637;SDS011;13496;51.040;13.680;2023-07-31T20:45:14;11.57;;;5.32;;
25637;SDS011;13496;51.040;13.680;2023-07-31T20:50:16;9.20;;;4.95;;
25637;SDS011;13496;51.040;13.680;2023-07-31T20:55:18;12.13;;;5.45;;
25637;SDS011;13496;51.040;13.680;2023-07-31T21:00:19;12.98;;;5.95;;
25637;SDS011;13496;51.040;13.680;2023-07-31T21:05:21;9.48;;;5.35;;
25637;SDS011;13496;51.040;13.680;2023-07-31T21:10:23;11.63;;;5.05;;
25637;SDS011;13496;51.040;13.680;2023-07-31T21:15:24;9.18;;;5.28;;
25637;SDS011;13496;51.040;13.680;2023-07-31T21:20:27;10.23;;;5.40;;
25637;SDS011;13496;51.040;13.680;2023-07-31T21:25:31;10.52;;;5.30;;
25637;SDS011;13496;51.040;13.680;2023-07-31T21:30:34;8.65;;;5.25;;
25637;SDS011;13496;51.040;13.680;2023-07-31T21:35:36;10.80;;;5.38;;
25637;SDS011;13496;51.040;13.680;2023-07-31T21:40:38;12.85;;;5.55;;
25637;SDS011;13496;51.040;13.680;2023-07-31T21:45:39;7.95;;;4.68;;
25637;SDS011;13496;51.040;13.680;2023-07-31T21:50:41;9.50;;;5.18;;
25637;SDS011;13496;51.040;13.680;2023-07-31T21:55:43;9.43;;;4.93;;
25637;SDS011;13496;51.040;13.680;2023-07-31T22:00:45;8.57;;;4.88;;
25637;SDS011;13496;51.040;13.680;2023-07-31T22:05:47;8.93;;;5.35;;
25637;SDS011;13496;51.040;13.680;2023-07-31T22:10:48;7.90;;;4.55;;
25637;SDS011;13496;51.040;13.680;2023-07-31T22:15:50;8.90;;;5.35;;
25637;SDS011;13496;51.040;13.680;2023-07-31T22:20:52;10.73;;;5.00;;
25637;SDS011;13496;51.040;13.680;2023-07-31T22:25:53;8.65;;;4.63;;
25637;SDS011;13496;51.040;13.680;2023-07-31T22:30:55;5.70;;;4.35;;
25637;SDS011;13496;51.040;13.680;2023-07-31T22:35:57;8.05;;;4.50;;
25637;SDS011;13496;51.040;13.680;2023-07-31T22:40:58;7.35;;;4.47;;
25637;SDS011;13496;51.040;13.680;2023-07-31T22:46:00;8.15;;;4.72;;
25637;SDS011;13496;51.040;13.680;2023-07-31T22:51:02;8.32;;;4.55;;
25637;SDS011;13496;51.040;13.680;2023-07-31T22:56:04;5.85;;;4.13;;
25637;SDS011;13496;51.040;13.680;2023-07-31T23:01:07;8.00;;;4.43;;
25637;SDS011;13496;51.040;13.680;2023-07-31T23:06:10;8.00;;;4.50;;
25637;SDS011;13496;51.040;13.680;2023-07-31T23:11:12;7.22;;;4.13;;
25637;SDS011;13496;51.040;13.680;2023-07-31T23:16:14;6.65;;;4.15;;
25637;SDS011;13496;51.040;13.680;2023-07-31T23:21:16;6.65;;;4.38;;
25637;SDS011;13496;51.040;13.680;2023-07-31T23:26:17;6.80;;;4.00;;
25637;SDS011;13496;51.040;13.680;2023-07-31T23:31:19;7.50;;;4.10;;
25637;SDS011;13496;51.040;13.680;2023-07-31T23:36:21;7.07;;;4.32;;
25637;SDS011;13496;51.040;13.680;2023-07-31T23:41:22;6.60;;;4.28;;
25637;SDS011;13496;51.040;13.680;2023-07-31T23:46:24;5.47;;;3.95;;
25637;SDS011;13496;51.040;13.680;2023-07-31T23:51:26;6.50;;;4.38;;
25637;SDS011;13496;51.040;13.680;2023-07-31T23:56:27;6.47;;;4.22;;
